sensor_id;sensor_type;location;lat;lon;timestamp;P1;durP1;ratioP1;P2;durP2;ratioP2
13309;SDS011;6723;48.256;16.402;2024-01-06T00:01:50;24.67;;;17.37;;
13309;SDS011;6723;48.256;16.402;2024-01-06T00:04:16;23.23;;;16.13;;
13309;SDS011;6723;48.256;16.402;2024-01-06T00:06:41;25.93;;;17.13;;
13309;SDS011;6723;48.256;16.402;2024-01-06T00:09:07;21.97;;;16.57;;
13309;SDS011;6723;48.256;16.402;2024-01-06T00:11:33;23.13;;;15.67;;
13309;SDS011;6723;48.256;16.402;2024-01-06T00:13:59;22.00;;;16.27;;
13309;SDS011;6723;48.256;16.402;2024-01-06T00:16:25;25.73;;;17.33;;
13309;SDS011;6723;48.256;16.402;2024-01-06T00:18:50;25.80;;;17.33;;
13309;SDS011;6723;48.256;16.402;2024-01-06T00:21:16;23.80;;;16.57;;
13309;SDS011;6723;48.256;16.402;2024-01-06T00:23:42;24.67;;;17.57;;
13309;SDS011;6723;48.256;16.402;2024-01-06T00:26:09;21.83;;;16.17;;
13309;SDS011;6723;48.256;16.402;2024-01-06T00:28:35;23.03;;;17.50;;
13309;SDS011;6723;48.256;16.402;2024-01-06T00:31:02;25.37;;;18.03;;
13309;SDS011;6723;48.256;16.402;2024-01-06T00:33:28;26.03;;;18.13;;
13309;SDS011;6723;48.256;16.402;2024-01-06T00:35:54;22.30;;;17.40;;
13309;SDS011;6723;48.256;16.402;2024-01-06T00:38:21;26.90;;;19.07;;
13309;SDS011;6723;48.256;16.402;2024-01-06T00:40:47;28.20;;;19.10;;
13309;SDS011;6723;48.256;16.402;2024-01-06T00:43:12;26.93;;;19.93;;
13309;SDS011;6723;48.256;16.402;2024-01-06T00:45:38;27.60;;;19.17;;
13309;SDS011;6723;48.256;16.402;2024-01-06T00:48:04;25.00;;;19.13;;
13309;SDS011;6723;48.256;16.402;2024-01-06T00:50:30;26.33;;;19.37;;
13309;SDS011;6723;48.256;16.402;2024-01-06T00:52:56;26.10;;;19.70;;
13309;SDS011;6723;48.256;16.402;2024-01-06T00:55:22;27.60;;;20.23;;
13309;SDS011;6723;48.256;16.402;2024-01-06T00:57:50;26.87;;;20.90;;
13309;SDS011;6723;48.256;16.402;2024-01-06T01:00:16;28.23;;;20.60;;
13309;SDS011;6723;48.256;16.402;2024-01-06T01:02:42;28.30;;;20.93;;
13309;SDS011;6723;48.256;16.402;2024-01-06T01:05:07;26.90;;;20.93;;
13309;SDS011;6723;48.256;16.402;2024-01-06T01:07:33;29.80;;;21.60;;
13309;SDS011;6723;48.256;16.402;2024-01-06T01:09:59;28.73;;;20.43;;
13309;SDS011;6723;48.256;16.402;2024-01-06T01:12:25;30.73;;;21.40;;
13309;SDS011;6723;48.256;16.402;2024-01-06T01:14:52;33.30;;;21.23;;
13309;SDS011;6723;48.256;16.402;2024-01-06T01:17:18;28.77;;;21.63;;
13309;SDS011;6723;48.256;16.402;2024-01-06T01:19:44;30.83;;;20.90;;
13309;SDS011;6723;48.256;16.402;2024-01-06T01:22:11;30.53;;;22.00;;
13309;SDS011;6723;48.256;16.402;2024-01-06T01:24:37;28.37;;;21.13;;
13309;SDS011;6723;48.256;16.402;2024-01-06T01:27:03;28.40;;;20.23;;
13309;SDS011;6723;48.256;16.402;2024-01-06T01:29:29;26.83;;;19.97;;
13309;SDS011;6723;48.256;16.402;2024-01-06T01:31:55;27.87;;;19.53;;
13309;SDS011;6723;48.256;16.402;2024-01-06T01:34:21;29.53;;;20.57;;
13309;SDS011;6723;48.256;16.402;2024-01-06T01:36:47;29.17;;;20.67;;
13309;SDS011;6723;48.256;16.402;2024-01-06T01:39:13;29.97;;;20.87;;
13309;SDS011;6723;48.256;16.402;2024-01-06T01:41:39;27.93;;;21.07;;
13309;SDS011;6723;48.256;16.402;2024-01-06T01:44:06;28.33;;;20.50;;
13309;SDS011;6723;48.256;16.402;2024-01-06T01:46:32;29.27;;;20.03;;
13309;SDS011;6723;48.256;16.402;2024-01-06T01:48:59;27.13;;;20.87;;
13309;SDS011;6723;48.256;16.402;2024-01-06T01:51:27;28.93;;;21.33;;
13309;SDS011;6723;48.256;16.402;2024-01-06T01:53:59;30.00;;;21.80;;
13309;SDS011;6723;48.256;16.402;2024-01-06T01:56:26;27.10;;;20.73;;
13309;SDS011;6723;48.256;16.402;2024-01-06T01:58:53;34.83;;;22.07;;
13309;SDS011;6723;48.256;16.402;2024-01-06T02:01:19;31.90;;;22.30;;
13309;SDS011;6723;48.256;16.402;2024-01-06T02:03:45;30.40;;;22.37;;
13309;SDS011;6723;48.256;16.402;2024-01-06T02:06:11;32.60;;;22.37;;
13309;SDS011;6723;48.256;16.402;2024-01-06T02:08:38;31.33;;;22.57;;
13309;SDS011;6723;48.256;16.402;2024-01-06T02:11:04;35.23;;;22.47;;
13309;SDS011;6723;48.256;16.402;2024-01-06T02:13:34;33.60;;;23.20;;
13309;SDS011;6723;48.256;16.402;2024-01-06T02:16:00;31.77;;;23.37;;
13309;SDS011;6723;48.256;16.402;2024-01-06T02:18:33;30.40;;;22.27;;
13309;SDS011;6723;48.256;16.402;2024-01-06T02:20:59;31.53;;;23.33;;
13309;SDS011;6723;48.256;16.402;2024-01-06T02:23:27;32.53;;;23.63;;
13309;SDS011;6723;48.256;16.402;2024-01-06T02:25:53;33.67;;;23.47;;
13309;SDS011;6723;48.256;16.402;2024-01-06T02:28:19;32.97;;;23.40;;
13309;SDS011;6723;48.256;16.402;2024-01-06T02:30:45;32.90;;;23.63;;
13309;SDS011;6723;48.256;16.402;2024-01-06T02:33:11;35.37;;;23.23;;
13309;SDS011;6723;48.256;16.402;2024-01-06T02:35:37;32.63;;;23.87;;
13309;SDS011;6723;48.256;16.402;2024-01-06T02:38:05;33.17;;;23.97;;
13309;SDS011;6723;48.256;16.402;2024-01-06T02:40:31;33.87;;;24.30;;
13309;SDS011;6723;48.256;16.402;2024-01-06T02:42:58;32.83;;;23.40;;
13309;SDS011;6723;48.256;16.402;2024-01-06T02:45:24;33.80;;;24.83;;
13309;SDS011;6723;48.256;16.402;2024-01-06T02:47:50;38.17;;;26.23;;
13309;SDS011;6723;48.256;16.402;2024-01-06T02:50:16;35.60;;;24.50;;
13309;SDS011;6723;48.256;16.402;2024-01-06T02:52:43;35.90;;;25.37;;
13309;SDS011;6723;48.256;16.402;2024-01-06T02:55:10;34.63;;;24.57;;
13309;SDS011;6723;48.256;16.402;2024-01-06T02:57:37;33.47;;;25.00;;
13309;SDS011;6723;48.256;16.402;2024-01-06T03:00:03;36.30;;;25.03;;
13309;SDS011;6723;48.256;16.402;2024-01-06T03:02:30;36.27;;;25.03;;
13309;SDS011;6723;48.256;16.402;2024-01-06T03:04:56;33.50;;;24.27;;
13309;SDS011;6723;48.256;16.402;2024-01-06T03:07:21;32.47;;;23.23;;
13309;SDS011;6723;48.256;16.402;2024-01-06T03:09:47;31.07;;;23.63;;
13309;SDS011;6723;48.256;16.402;2024-01-06T03:12:13;33.67;;;24.37;;
13309;SDS011;6723;48.256;16.402;2024-01-06T03:14:39;35.77;;;25.17;;
13309;SDS011;6723;48.256;16.402;2024-01-06T03:17:05;33.97;;;24.30;;
13309;SDS011;6723;48.256;16.402;2024-01-06T03:19:35;34.20;;;24.87;;
13309;SDS011;6723;48.256;16.402;2024-01-06T03:22:04;34.73;;;25.00;;
13309;SDS011;6723;48.256;16.402;2024-01-06T03:24:30;36.20;;;24.00;;
13309;SDS011;6723;48.256;16.402;2024-01-06T03:26:56;35.00;;;24.63;;
13309;SDS011;6723;48.256;16.402;2024-01-06T03:29:22;34.33;;;24.20;;
13309;SDS011;6723;48.256;16.402;2024-01-06T03:31:48;34.23;;;24.80;;
13309;SDS011;6723;48.256;16.402;2024-01-06T03:34:14;36.20;;;24.90;;
13309;SDS011;6723;48.256;16.402;2024-01-06T03:36:40;35.73;;;25.50;;
13309;SDS011;6723;48.256;16.402;2024-01-06T03:39:09;36.53;;;24.50;;
13309;SDS011;6723;48.256;16.402;2024-01-06T03:41:39;32.67;;;24.80;;
13309;SDS011;6723;48.256;16.402;2024-01-06T03:44:05;34.03;;;23.87;;
13309;SDS011;6723;48.256;16.402;2024-01-06T03:46:30;33.33;;;24.83;;
13309;SDS011;6723;48.256;16.402;2024-01-06T03:48:57;34.63;;;24.70;;
13309;SDS011;6723;48.256;16.402;2024-01-06T03:51:23;34.90;;;24.33;;
13309;SDS011;6723;48.256;16.402;2024-01-06T03:53:49;35.67;;;24.40;;
13309;SDS011;6723;48.256;16.402;2024-01-06T03:56:15;34.73;;;23.53;;
13309;SDS011;6723;48.256;16.402;2024-01-06T03:58:41;34.83;;;24.67;;
13309;SDS011;6723;48.256;16.402;2024-01-06T04:01:06;34.10;;;24.10;;
13309;SDS011;6723;48.256;16.402;2024-01-06T04:03:32;36.40;;;25.70;;
13309;SDS011;6723;48.256;16.402;2024-01-06T04:05:58;33.20;;;23.93;;
13309;SDS011;6723;48.256;16.402;2024-01-06T04:08:24;36.27;;;25.50;;
13309;SDS011;6723;48.256;16.402;2024-01-06T04:10:49;35.17;;;24.60;;
13309;SDS011;6723;48.256;16.402;2024-01-06T04:13:15;35.67;;;23.90;;
13309;SDS011;6723;48.256;16.402;2024-01-06T04:15:41;31.37;;;23.27;;
13309;SDS011;6723;48.256;16.402;2024-01-06T04:18:07;32.70;;;23.77;;
13309;SDS011;6723;48.256;16.402;2024-01-06T04:20:34;32.83;;;23.67;;
13309;SDS011;6723;48.256;16.402;2024-01-06T04:23:00;34.27;;;24.30;;
13309;SDS011;6723;48.256;16.402;2024-01-06T04:25:26;31.50;;;23.23;;
13309;SDS011;6723;48.256;16.402;2024-01-06T04:27:52;35.77;;;24.53;;
13309;SDS011;6723;48.256;16.402;2024-01-06T04:30:18;35.17;;;24.47;;
13309;SDS011;6723;48.256;16.402;2024-01-06T04:32:45;31.33;;;23.87;;
13309;SDS011;6723;48.256;16.402;2024-01-06T04:35:13;36.77;;;24.33;;
13309;SDS011;6723;48.256;16.402;2024-01-06T04:37:39;37.33;;;25.37;;
13309;SDS011;6723;48.256;16.402;2024-01-06T04:40:05;34.47;;;24.07;;
13309;SDS011;6723;48.256;16.402;2024-01-06T04:42:33;36.37;;;24.53;;
13309;SDS011;6723;48.256;16.402;2024-01-06T04:44:59;35.70;;;23.70;;
13309;SDS011;6723;48.256;16.402;2024-01-06T04:47:25;37.83;;;25.13;;
13309;SDS011;6723;48.256;16.402;2024-01-06T04:49:51;36.97;;;24.30;;
13309;SDS011;6723;48.256;16.402;2024-01-06T04:52:17;36.27;;;24.33;;
13309;SDS011;6723;48.256;16.402;2024-01-06T04:54:43;31.53;;;23.53;;
13309;SDS011;6723;48.256;16.402;2024-01-06T04:57:09;34.97;;;22.97;;
13309;SDS011;6723;48.256;16.402;2024-01-06T04:59:35;32.47;;;23.97;;
13309;SDS011;6723;48.256;16.402;2024-01-06T05:02:00;32.93;;;23.00;;
13309;SDS011;6723;48.256;16.402;2024-01-06T05:04:27;32.73;;;22.77;;
13309;SDS011;6723;48.256;16.402;2024-01-06T05:06:53;31.90;;;23.33;;
13309;SDS011;6723;48.256;16.402;2024-01-06T05:09:20;31.77;;;22.63;;
13309;SDS011;6723;48.256;16.402;2024-01-06T05:11:45;34.10;;;23.97;;
13309;SDS011;6723;48.256;16.402;2024-01-06T05:14:11;34.07;;;22.63;;
13309;SDS011;6723;48.256;16.402;2024-01-06T05:16:37;32.77;;;24.70;;
13309;SDS011;6723;48.256;16.402;2024-01-06T05:19:03;33.37;;;23.23;;
13309;SDS011;6723;48.256;16.402;2024-01-06T05:21:29;34.53;;;23.77;;
13309;SDS011;6723;48.256;16.402;2024-01-06T05:23:56;34.27;;;24.10;;
13309;SDS011;6723;48.256;16.402;2024-01-06T05:26:22;31.83;;;23.40;;
13309;SDS011;6723;48.256;16.402;2024-01-06T05:28:48;30.83;;;22.87;;
13309;SDS011;6723;48.256;16.402;2024-01-06T05:31:14;28.67;;;22.40;;
13309;SDS011;6723;48.256;16.402;2024-01-06T05:33:39;33.40;;;22.67;;
13309;SDS011;6723;48.256;16.402;2024-01-06T05:36:05;34.83;;;22.43;;
13309;SDS011;6723;48.256;16.402;2024-01-06T05:38:31;31.00;;;22.83;;
13309;SDS011;6723;48.256;16.402;2024-01-06T05:40:57;32.77;;;23.17;;
13309;SDS011;6723;48.256;16.402;2024-01-06T05:43:23;33.50;;;23.43;;
13309;SDS011;6723;48.256;16.402;2024-01-06T05:45:49;34.67;;;23.53;;
13309;SDS011;6723;48.256;16.402;2024-01-06T05:48:15;30.57;;;21.87;;
13309;SDS011;6723;48.256;16.402;2024-01-06T05:50:42;32.40;;;22.30;;
13309;SDS011;6723;48.256;16.402;2024-01-06T05:53:11;29.20;;;21.53;;
13309;SDS011;6723;48.256;16.402;2024-01-06T05:55:39;31.20;;;22.67;;
13309;SDS011;6723;48.256;16.402;2024-01-06T05:58:05;32.07;;;23.53;;
13309;SDS011;6723;48.256;16.402;2024-01-06T06:00:30;31.40;;;22.53;;
13309;SDS011;6723;48.256;16.402;2024-01-06T06:02:57;32.63;;;24.40;;
13309;SDS011;6723;48.256;16.402;2024-01-06T06:05:23;35.20;;;25.53;;
13309;SDS011;6723;48.256;16.402;2024-01-06T06:07:49;35.13;;;23.93;;
13309;SDS011;6723;48.256;16.402;2024-01-06T06:10:15;32.27;;;23.67;;
13309;SDS011;6723;48.256;16.402;2024-01-06T06:12:43;33.13;;;24.13;;
13309;SDS011;6723;48.256;16.402;2024-01-06T06:15:09;34.83;;;23.47;;
13309;SDS011;6723;48.256;16.402;2024-01-06T06:17:35;36.37;;;23.83;;
13309;SDS011;6723;48.256;16.402;2024-01-06T06:20:02;31.43;;;22.83;;
13309;SDS011;6723;48.256;16.402;2024-01-06T06:22:28;33.30;;;23.23;;
13309;SDS011;6723;48.256;16.402;2024-01-06T06:24:59;31.17;;;23.70;;
13309;SDS011;6723;48.256;16.402;2024-01-06T06:27:26;35.00;;;23.23;;
13309;SDS011;6723;48.256;16.402;2024-01-06T06:29:52;34.23;;;24.57;;
13309;SDS011;6723;48.256;16.402;2024-01-06T06:32:19;33.30;;;23.90;;
13309;SDS011;6723;48.256;16.402;2024-01-06T06:34:45;33.00;;;23.87;;
13309;SDS011;6723;48.256;16.402;2024-01-06T06:37:11;35.87;;;24.57;;
13309;SDS011;6723;48.256;16.402;2024-01-06T06:39:37;32.20;;;23.43;;
13309;SDS011;6723;48.256;16.402;2024-01-06T06:42:03;40.90;;;24.63;;
13309;SDS011;6723;48.256;16.402;2024-01-06T06:44:29;34.10;;;24.83;;
13309;SDS011;6723;48.256;16.402;2024-01-06T06:46:55;36.73;;;25.40;;
13309;SDS011;6723;48.256;16.402;2024-01-06T06:49:22;32.80;;;23.63;;
13309;SDS011;6723;48.256;16.402;2024-01-06T06:51:48;33.70;;;23.83;;
13309;SDS011;6723;48.256;16.402;2024-01-06T06:54:15;33.23;;;24.53;;
13309;SDS011;6723;48.256;16.402;2024-01-06T06:56:42;36.73;;;25.07;;
13309;SDS011;6723;48.256;16.402;2024-01-06T06:59:08;34.17;;;23.17;;
13309;SDS011;6723;48.256;16.402;2024-01-06T07:01:34;32.00;;;24.07;;
13309;SDS011;6723;48.256;16.402;2024-01-06T07:04:01;32.93;;;23.10;;
13309;SDS011;6723;48.256;16.402;2024-01-06T07:06:28;33.73;;;23.00;;
13309;SDS011;6723;48.256;16.402;2024-01-06T07:08:55;30.30;;;23.20;;
13309;SDS011;6723;48.256;16.402;2024-01-06T07:11:22;35.57;;;24.53;;
13309;SDS011;6723;48.256;16.402;2024-01-06T07:13:49;30.43;;;22.33;;
13309;SDS011;6723;48.256;16.402;2024-01-06T07:16:15;36.03;;;24.97;;
13309;SDS011;6723;48.256;16.402;2024-01-06T07:18:42;36.63;;;24.47;;
13309;SDS011;6723;48.256;16.402;2024-01-06T07:21:07;34.47;;;24.10;;
13309;SDS011;6723;48.256;16.402;2024-01-06T07:23:33;35.60;;;24.30;;
13309;SDS011;6723;48.256;16.402;2024-01-06T07:26:00;34.03;;;24.23;;
13309;SDS011;6723;48.256;16.402;2024-01-06T07:28:26;34.57;;;24.37;;
13309;SDS011;6723;48.256;16.402;2024-01-06T07:30:52;33.60;;;24.73;;
13309;SDS011;6723;48.256;16.402;2024-01-06T07:33:18;33.33;;;24.10;;
13309;SDS011;6723;48.256;16.402;2024-01-06T07:35:44;34.47;;;24.70;;
13309;SDS011;6723;48.256;16.402;2024-01-06T07:38:11;34.83;;;24.00;;
13309;SDS011;6723;48.256;16.402;2024-01-06T07:40:37;33.37;;;23.90;;
13309;SDS011;6723;48.256;16.402;2024-01-06T07:43:03;32.20;;;23.53;;
13309;SDS011;6723;48.256;16.402;2024-01-06T07:45:29;34.53;;;23.33;;
13309;SDS011;6723;48.256;16.402;2024-01-06T07:47:59;34.07;;;23.30;;
13309;SDS011;6723;48.256;16.402;2024-01-06T07:50:26;32.73;;;22.93;;
13309;SDS011;6723;48.256;16.402;2024-01-06T07:52:53;37.60;;;25.17;;
13309;SDS011;6723;48.256;16.402;2024-01-06T07:55:19;33.57;;;23.23;;
13309;SDS011;6723;48.256;16.402;2024-01-06T07:57:45;32.20;;;22.70;;
13309;SDS011;6723;48.256;16.402;2024-01-06T08:00:12;30.27;;;21.73;;
13309;SDS011;6723;48.256;16.402;2024-01-06T08:02:41;31.23;;;22.77;;
13309;SDS011;6723;48.256;16.402;2024-01-06T08:05:07;31.03;;;22.40;;
13309;SDS011;6723;48.256;16.402;2024-01-06T08:07:33;31.13;;;23.63;;
13309;SDS011;6723;48.256;16.402;2024-01-06T08:09:59;28.53;;;20.70;;
13309;SDS011;6723;48.256;16.402;2024-01-06T08:12:26;31.87;;;22.63;;
13309;SDS011;6723;48.256;16.402;2024-01-06T08:14:52;31.53;;;22.43;;
13309;SDS011;6723;48.256;16.402;2024-01-06T08:17:18;29.40;;;22.10;;
13309;SDS011;6723;48.256;16.402;2024-01-06T08:19:44;31.00;;;22.77;;
13309;SDS011;6723;48.256;16.402;2024-01-06T08:22:12;27.17;;;20.30;;
13309;SDS011;6723;48.256;16.402;2024-01-06T08:24:39;30.20;;;21.77;;
13309;SDS011;6723;48.256;16.402;2024-01-06T08:27:05;28.63;;;21.70;;
13309;SDS011;6723;48.256;16.402;2024-01-06T08:29:31;29.03;;;21.13;;
13309;SDS011;6723;48.256;16.402;2024-01-06T08:31:57;27.27;;;21.00;;
13309;SDS011;6723;48.256;16.402;2024-01-06T08:34:23;29.23;;;21.30;;
13309;SDS011;6723;48.256;16.402;2024-01-06T08:36:49;29.23;;;21.87;;
13309;SDS011;6723;48.256;16.402;2024-01-06T08:39:15;29.27;;;20.83;;
13309;SDS011;6723;48.256;16.402;2024-01-06T08:41:42;31.80;;;22.10;;
13309;SDS011;6723;48.256;16.402;2024-01-06T08:44:08;28.13;;;20.77;;
13309;SDS011;6723;48.256;16.402;2024-01-06T08:46:34;27.77;;;21.40;;
13309;SDS011;6723;48.256;16.402;2024-01-06T08:48:59;27.17;;;21.57;;
13309;SDS011;6723;48.256;16.402;2024-01-06T08:51:25;24.47;;;20.00;;
13309;SDS011;6723;48.256;16.402;2024-01-06T08:53:51;26.00;;;19.27;;
13309;SDS011;6723;48.256;16.402;2024-01-06T08:56:18;27.37;;;19.80;;
13309;SDS011;6723;48.256;16.402;2024-01-06T08:58:44;25.23;;;19.60;;
13309;SDS011;6723;48.256;16.402;2024-01-06T09:01:10;25.67;;;19.33;;
13309;SDS011;6723;48.256;16.402;2024-01-06T09:03:36;24.17;;;17.77;;
13309;SDS011;6723;48.256;16.402;2024-01-06T09:06:02;24.23;;;18.30;;
13309;SDS011;6723;48.256;16.402;2024-01-06T09:08:29;22.47;;;17.90;;
13309;SDS011;6723;48.256;16.402;2024-01-06T09:10:55;24.57;;;18.17;;
13309;SDS011;6723;48.256;16.402;2024-01-06T09:13:22;24.53;;;18.87;;
13309;SDS011;6723;48.256;16.402;2024-01-06T09:15:49;24.27;;;18.00;;
13309;SDS011;6723;48.256;16.402;2024-01-06T09:18:16;24.60;;;18.93;;
13309;SDS011;6723;48.256;16.402;2024-01-06T09:20:42;22.17;;;17.30;;
13309;SDS011;6723;48.256;16.402;2024-01-06T09:23:08;22.10;;;16.77;;
13309;SDS011;6723;48.256;16.402;2024-01-06T09:25:44;20.70;;;16.23;;
13309;SDS011;6723;48.256;16.402;2024-01-06T09:28:10;19.90;;;16.17;;
13309;SDS011;6723;48.256;16.402;2024-01-06T09:30:36;20.80;;;16.33;;
13309;SDS011;6723;48.256;16.402;2024-01-06T09:33:02;22.00;;;16.70;;
13309;SDS011;6723;48.256;16.402;2024-01-06T09:35:28;22.67;;;17.20;;
13309;SDS011;6723;48.256;16.402;2024-01-06T09:37:54;20.03;;;16.27;;
13309;SDS011;6723;48.256;16.402;2024-01-06T09:40:21;21.57;;;15.83;;
13309;SDS011;6723;48.256;16.402;2024-01-06T09:42:51;20.57;;;15.20;;
13309;SDS011;6723;48.256;16.402;2024-01-06T09:45:21;17.70;;;14.70;;
13309;SDS011;6723;48.256;16.402;2024-01-06T09:47:50;18.83;;;14.13;;
13309;SDS011;6723;48.256;16.402;2024-01-06T09:50:20;19.80;;;15.03;;
13309;SDS011;6723;48.256;16.402;2024-01-06T09:52:48;16.77;;;13.50;;
13309;SDS011;6723;48.256;16.402;2024-01-06T09:55:22;18.37;;;14.23;;
13309;SDS011;6723;48.256;16.402;2024-01-06T09:57:51;20.90;;;14.97;;
13309;SDS011;6723;48.256;16.402;2024-01-06T10:00:18;18.30;;;14.07;;
13309;SDS011;6723;48.256;16.402;2024-01-06T10:02:46;20.53;;;16.03;;
13309;SDS011;6723;48.256;16.402;2024-01-06T10:05:15;19.37;;;14.93;;
13309;SDS011;6723;48.256;16.402;2024-01-06T10:07:42;22.10;;;16.20;;
13309;SDS011;6723;48.256;16.402;2024-01-06T10:10:09;19.77;;;15.30;;
13309;SDS011;6723;48.256;16.402;2024-01-06T10:12:39;19.37;;;14.93;;
13309;SDS011;6723;48.256;16.402;2024-01-06T10:15:06;17.73;;;13.80;;
13309;SDS011;6723;48.256;16.402;2024-01-06T10:17:37;17.10;;;13.93;;
13309;SDS011;6723;48.256;16.402;2024-01-06T10:20:10;19.33;;;14.87;;
13309;SDS011;6723;48.256;16.402;2024-01-06T10:22:38;17.87;;;14.57;;
13309;SDS011;6723;48.256;16.402;2024-01-06T10:25:06;16.90;;;13.77;;
13309;SDS011;6723;48.256;16.402;2024-01-06T10:27:33;17.63;;;13.90;;
13309;SDS011;6723;48.256;16.402;2024-01-06T10:30:04;18.80;;;14.80;;
13309;SDS011;6723;48.256;16.402;2024-01-06T10:32:31;17.43;;;13.77;;
13309;SDS011;6723;48.256;16.402;2024-01-06T10:35:01;18.20;;;13.40;;
13309;SDS011;6723;48.256;16.402;2024-01-06T10:37:28;18.33;;;14.43;;
13309;SDS011;6723;48.256;16.402;2024-01-06T10:40:05;15.13;;;11.67;;
13309;SDS011;6723;48.256;16.402;2024-01-06T10:42:36;16.53;;;12.43;;
13309;SDS011;6723;48.256;16.402;2024-01-06T10:45:08;18.13;;;12.47;;
13309;SDS011;6723;48.256;16.402;2024-01-06T10:47:36;15.33;;;11.40;;
13309;SDS011;6723;48.256;16.402;2024-01-06T10:50:03;18.93;;;12.10;;
13309;SDS011;6723;48.256;16.402;2024-01-06T10:52:30;16.63;;;12.97;;
13309;SDS011;6723;48.256;16.402;2024-01-06T10:54:57;14.63;;;11.60;;
13309;SDS011;6723;48.256;16.402;2024-01-06T10:57:23;15.37;;;12.00;;
13309;SDS011;6723;48.256;16.402;2024-01-06T10:59:50;14.90;;;12.30;;
13309;SDS011;6723;48.256;16.402;2024-01-06T11:02:17;16.07;;;12.67;;
13309;SDS011;6723;48.256;16.402;2024-01-06T11:04:47;13.43;;;11.80;;
13309;SDS011;6723;48.256;16.402;2024-01-06T11:07:15;16.00;;;12.23;;
13309;SDS011;6723;48.256;16.402;2024-01-06T11:10:01;15.87;;;12.53;;
13309;SDS011;6723;48.256;16.402;2024-01-06T11:12:31;16.23;;;13.30;;
13309;SDS011;6723;48.256;16.402;2024-01-06T11:14:58;14.83;;;12.40;;
13309;SDS011;6723;48.256;16.402;2024-01-06T11:20:20;16.57;;;12.13;;
13309;SDS011;6723;48.256;16.402;2024-01-06T11:22:48;18.53;;;13.50;;
13309;SDS011;6723;48.256;16.402;2024-01-06T11:25:18;16.40;;;12.70;;
13309;SDS011;6723;48.256;16.402;2024-01-06T11:27:48;18.10;;;13.50;;
13309;SDS011;6723;48.256;16.402;2024-01-06T11:30:19;19.90;;;13.80;;
13309;SDS011;6723;48.256;16.402;2024-01-06T11:32:45;17.60;;;13.47;;
13309;SDS011;6723;48.256;16.402;2024-01-06T11:35:12;17.10;;;13.43;;
13309;SDS011;6723;48.256;16.402;2024-01-06T11:42:41;17.73;;;14.03;;
13309;SDS011;6723;48.256;16.402;2024-01-06T11:45:07;18.33;;;14.83;;
13309;SDS011;6723;48.256;16.402;2024-01-06T11:47:34;20.10;;;14.90;;
13309;SDS011;6723;48.256;16.402;2024-01-06T11:50:01;20.73;;;15.57;;
13309;SDS011;6723;48.256;16.402;2024-01-06T11:52:34;17.23;;;13.93;;
13309;SDS011;6723;48.256;16.402;2024-01-06T11:55:00;17.43;;;14.13;;
13309;SDS011;6723;48.256;16.402;2024-01-06T11:57:27;18.07;;;13.40;;
13309;SDS011;6723;48.256;16.402;2024-01-06T11:59:53;19.53;;;13.90;;
13309;SDS011;6723;48.256;16.402;2024-01-06T12:02:19;17.60;;;14.10;;
13309;SDS011;6723;48.256;16.402;2024-01-06T12:04:49;17.20;;;12.63;;
13309;SDS011;6723;48.256;16.402;2024-01-06T12:07:16;16.60;;;12.93;;
13309;SDS011;6723;48.256;16.402;2024-01-06T12:09:43;18.27;;;12.97;;
13309;SDS011;6723;48.256;16.402;2024-01-06T12:12:08;14.20;;;11.30;;
13309;SDS011;6723;48.256;16.402;2024-01-06T12:14:36;14.70;;;11.57;;
13309;SDS011;6723;48.256;16.402;2024-01-06T12:17:02;16.37;;;12.60;;
13309;SDS011;6723;48.256;16.402;2024-01-06T12:19:30;15.73;;;12.23;;
13309;SDS011;6723;48.256;16.402;2024-01-06T12:21:59;15.43;;;11.90;;
13309;SDS011;6723;48.256;16.402;2024-01-06T12:24:29;15.73;;;13.00;;
13309;SDS011;6723;48.256;16.402;2024-01-06T12:26:55;16.17;;;12.43;;
13309;SDS011;6723;48.256;16.402;2024-01-06T12:29:26;12.57;;;10.57;;
13309;SDS011;6723;48.256;16.402;2024-01-06T12:31:58;14.80;;;12.37;;
13309;SDS011;6723;48.256;16.402;2024-01-06T12:34:25;16.57;;;12.80;;
13309;SDS011;6723;48.256;16.402;2024-01-06T12:36:55;15.00;;;12.50;;
13309;SDS011;6723;48.256;16.402;2024-01-06T12:39:21;17.10;;;13.97;;
13309;SDS011;6723;48.256;16.402;2024-01-06T12:41:48;16.10;;;12.50;;
13309;SDS011;6723;48.256;16.402;2024-01-06T12:44:16;14.90;;;11.53;;
13309;SDS011;6723;48.256;16.402;2024-01-06T12:46:42;12.87;;;10.80;;
13309;SDS011;6723;48.256;16.402;2024-01-06T12:49:08;12.87;;;10.27;;
13309;SDS011;6723;48.256;16.402;2024-01-06T12:51:34;13.17;;;10.50;;
13309;SDS011;6723;48.256;16.402;2024-01-06T12:54:00;14.63;;;11.77;;
13309;SDS011;6723;48.256;16.402;2024-01-06T12:56:25;13.27;;;9.90;;
13309;SDS011;6723;48.256;16.402;2024-01-06T12:58:51;13.37;;;11.27;;
13309;SDS011;6723;48.256;16.402;2024-01-06T13:01:18;11.83;;;9.70;;
13309;SDS011;6723;48.256;16.402;2024-01-06T13:03:44;10.90;;;8.80;;
13309;SDS011;6723;48.256;16.402;2024-01-06T13:06:10;12.00;;;9.53;;
13309;SDS011;6723;48.256;16.402;2024-01-06T13:08:36;10.93;;;9.73;;
13309;SDS011;6723;48.256;16.402;2024-01-06T13:11:02;11.33;;;8.60;;
13309;SDS011;6723;48.256;16.402;2024-01-06T13:13:28;9.70;;;8.70;;
13309;SDS011;6723;48.256;16.402;2024-01-06T13:15:56;11.23;;;9.33;;
13309;SDS011;6723;48.256;16.402;2024-01-06T13:18:22;11.63;;;9.50;;
13309;SDS011;6723;48.256;16.402;2024-01-06T13:20:48;11.63;;;9.63;;
13309;SDS011;6723;48.256;16.402;2024-01-06T13:23:15;12.53;;;10.00;;
13309;SDS011;6723;48.256;16.402;2024-01-06T13:25:41;11.53;;;9.53;;
13309;SDS011;6723;48.256;16.402;2024-01-06T13:28:07;12.10;;;10.27;;
13309;SDS011;6723;48.256;16.402;2024-01-06T13:30:33;10.40;;;8.73;;
13309;SDS011;6723;48.256;16.402;2024-01-06T13:32:59;11.97;;;9.87;;
13309;SDS011;6723;48.256;16.402;2024-01-06T13:35:25;9.50;;;8.50;;
13309;SDS011;6723;48.256;16.402;2024-01-06T13:37:52;11.70;;;9.13;;
13309;SDS011;6723;48.256;16.402;2024-01-06T13:40:18;10.13;;;8.77;;
13309;SDS011;6723;48.256;16.402;2024-01-06T13:42:47;11.13;;;8.87;;
13309;SDS011;6723;48.256;16.402;2024-01-06T13:45:14;12.40;;;10.03;;
13309;SDS011;6723;48.256;16.402;2024-01-06T13:47:41;11.77;;;10.00;;
13309;SDS011;6723;48.256;16.402;2024-01-06T13:50:13;11.60;;;9.47;;
13309;SDS011;6723;48.256;16.402;2024-01-06T13:52:43;13.13;;;10.40;;
13309;SDS011;6723;48.256;16.402;2024-01-06T13:55:10;11.07;;;9.00;;
13309;SDS011;6723;48.256;16.402;2024-01-06T13:57:37;11.23;;;9.30;;
13309;SDS011;6723;48.256;16.402;2024-01-06T14:00:07;10.50;;;9.13;;
13309;SDS011;6723;48.256;16.402;2024-01-06T14:02:39;11.60;;;9.57;;
13309;SDS011;6723;48.256;16.402;2024-01-06T14:05:06;13.77;;;9.93;;
13309;SDS011;6723;48.256;16.402;2024-01-06T14:07:34;10.97;;;9.17;;
13309;SDS011;6723;48.256;16.402;2024-01-06T14:10:01;10.53;;;9.27;;
13309;SDS011;6723;48.256;16.402;2024-01-06T14:12:28;11.60;;;9.20;;
13309;SDS011;6723;48.256;16.402;2024-01-06T14:14:56;12.03;;;10.00;;
13309;SDS011;6723;48.256;16.402;2024-01-06T14:17:21;12.13;;;9.83;;
13309;SDS011;6723;48.256;16.402;2024-01-06T14:19:48;11.00;;;9.37;;
13309;SDS011;6723;48.256;16.402;2024-01-06T14:22:14;12.83;;;10.20;;
13309;SDS011;6723;48.256;16.402;2024-01-06T14:24:40;11.77;;;9.53;;
13309;SDS011;6723;48.256;16.402;2024-01-06T14:27:06;14.17;;;10.63;;
13309;SDS011;6723;48.256;16.402;2024-01-06T14:29:31;12.57;;;10.20;;